createdAt,value
2023-04-16T00:01:55.952Z,95790.66
2023-04-16T00:03:59.377Z,95800.44
2023-04-16T00:06:02.285Z,95781.59
2023-04-16T00:08:05.043Z,95791.81
2023-04-16T00:10:09.076Z,95800.31
2023-04-16T00:12:11.867Z,95726.31
2023-04-16T00:14:14.596Z,95798.91
2023-04-16T00:16:18.779Z,95792.63
2023-04-16T00:18:21.768Z,95733.84
2023-04-16T00:20:24.516Z,95791.34
2023-04-16T00:22:27.250Z,95799.25
2023-04-16T00:24:30.043Z,95801.69
2023-04-16T00:26:32.861Z,95745.91
2023-04-16T00:28:35.666Z,95798.69
2023-04-16T00:30:38.449Z,95790.53
2023-04-16T00:32:42.608Z,95790.66
2023-04-16T00:34:45.468Z,95768.34
2023-04-16T00:36:48.286Z,95801.69
2023-04-16T00:38:51.270Z,95794.72
2023-04-16T00:40:53.963Z,95777.88
2023-04-16T00:42:56.777Z,95797.41
2023-04-16T00:44:59.772Z,95789.28
2023-04-16T00:47:03.783Z,95802.84
2023-04-16T00:49:08.097Z,95803.09
2023-04-16T00:51:12.244Z,95766.03
2023-04-16T00:53:15.254Z,95807.50
2023-04-16T00:55:19.025Z,95809.13
2023-04-16T00:57:23.939Z,95792.28
2023-04-16T00:59:27.212Z,95808.91
2023-04-16T01:01:30.214Z,95805.78
2023-04-16T01:03:39.516Z,95802.06
2023-04-16T01:05:45.970Z,95793.22
2023-04-16T01:07:48.730Z,95808.69
2023-04-16T01:09:51.519Z,95776.72
2023-04-16T01:11:54.279Z,95752.34
2023-04-16T01:13:57.036Z,95802.88
2023-04-16T01:16:00.143Z,95803.69
2023-04-16T01:18:02.992Z,95812.41
2023-04-16T01:20:08.326Z,95801.34
2023-04-16T01:22:12.435Z,95809.81
2023-04-16T01:24:15.165Z,95807.03
2023-04-16T01:26:17.926Z,95806.56
2023-04-16T01:28:21.122Z,95798.22
2023-04-16T01:30:24.044Z,95806.13
2023-04-16T01:32:40.137Z,95742.00
2023-04-16T01:34:43.049Z,95797.88
2023-04-16T01:36:46.310Z,95796.13
2023-04-16T01:38:51.033Z,95804.84
2023-04-16T01:40:57.062Z,95801.00
2023-04-16T01:42:59.854Z,95808.22
2023-04-16T01:45:02.622Z,95795.22
2023-04-16T01:47:05.645Z,95814.03
2023-04-16T01:49:08.977Z,95806.59
2023-04-16T01:51:11.837Z,95819.25
2023-04-16T01:53:14.600Z,95804.16
2023-04-16T01:55:18.968Z,95782.09
2023-04-16T01:57:21.874Z,95763.72
2023-04-16T01:59:25.664Z,95808.44
2023-04-16T02:01:28.594Z,95812.75
2023-04-16T02:03:32.586Z,95806.47
2023-04-16T02:05:35.643Z,95819.03
2023-04-16T02:07:38.447Z,95809.72
2023-04-16T02:09:42.026Z,95794.63
2023-04-16T02:11:46.211Z,95802.53
2023-04-16T02:13:49.009Z,95800.78
2023-04-16T02:15:54.267Z,95803.09
2023-04-16T02:18:08.397Z,95809.84
2023-04-16T02:20:13.176Z,95809.72
2023-04-16T02:22:23.879Z,95814.84
2023-04-16T02:24:28.840Z,95800.56
2023-04-16T02:26:32.473Z,95815.44
2023-04-16T02:28:42.580Z,95813.69
2023-04-16T02:30:47.610Z,95813.56
2023-04-16T02:32:53.230Z,95767.31
2023-04-16T02:34:57.065Z,95815.41
2023-04-16T02:36:59.831Z,95813.56
2023-04-16T02:39:02.697Z,95818.44
2023-04-16T02:41:05.656Z,95816.13
2023-04-16T02:43:09.712Z,95819.38
2023-04-16T02:45:14.366Z,95804.03
2023-04-16T02:47:17.209Z,95809.63
2023-04-16T02:49:20.008Z,95823.09
2023-04-16T02:51:24.319Z,95818.31
2023-04-16T02:53:27.267Z,95823.09
2023-04-16T02:55:30.404Z,95823.78
2023-04-16T02:57:33.747Z,95811.34
2023-04-16T02:59:36.527Z,95818.22
2023-04-16T03:01:40.679Z,95804.72
2023-04-16T03:03:43.523Z,95822.72
2023-04-16T03:05:46.480Z,95823.31
2023-04-16T03:07:50.664Z,95820.41
2023-04-16T03:09:53.554Z,95830.38
2023-04-16T03:11:57.384Z,95821.31
2023-04-16T03:14:00.129Z,95796.91
2023-04-16T03:16:03.027Z,95821.31
2023-04-16T03:18:07.276Z,95812.28
2023-04-16T03:20:11.189Z,95813.31
2023-04-16T03:22:13.936Z,95823.31
2023-04-16T03:24:17.158Z,95831.69
2023-04-16T03:26:19.917Z,95828.19
2023-04-16T03:28:23.234Z,95818.31
2023-04-16T03:30:25.980Z,95834.69
2023-04-16T03:32:28.962Z,95828.88
2023-04-16T03:34:33.368Z,95833.31
2023-04-16T03:36:36.495Z,95829.81
2023-04-16T03:38:39.350Z,95827.94
2023-04-16T03:40:42.424Z,95831.22
2023-04-16T03:42:45.380Z,95837.94
2023-04-16T03:44:48.191Z,95839.00
2023-04-16T03:46:52.645Z,95811.22
2023-04-16T03:48:55.981Z,95812.13
2023-04-16T03:51:00.618Z,95841.53
2023-04-16T03:53:03.399Z,95841.63
2023-04-16T03:55:07.526Z,95834.22
2023-04-16T03:57:10.628Z,95845.16
2023-04-16T03:59:13.649Z,95822.13
2023-04-16T04:01:16.376Z,95838.41
2023-04-16T04:03:19.393Z,95835.63
2023-04-16T04:05:24.879Z,95829.34
2023-04-16T04:07:29.856Z,95844.91
2023-04-16T04:09:34.025Z,95818.53
2023-04-16T04:11:39.107Z,95838.66
2023-04-16T04:13:41.940Z,95820.97
2023-04-16T04:15:45.372Z,95855.09
2023-04-16T04:17:48.171Z,95716.13
2023-04-16T04:20:00.859Z,95805.16
2023-04-16T04:22:06.357Z,95850.25
2023-04-16T04:24:10.770Z,95847.00
2023-04-16T04:26:13.574Z,95853.03
2023-04-16T04:28:17.124Z,95857.97
2023-04-16T04:30:20.464Z,95855.56
2023-04-16T04:32:23.256Z,95841.72
2023-04-16T04:34:26.213Z,95863.00
2023-04-16T04:36:31.346Z,95848.66
2023-04-16T04:38:34.627Z,95857.91
2023-04-16T04:40:39.115Z,95855.34
2023-04-16T04:42:41.992Z,95860.56
2023-04-16T04:44:45.608Z,95776.44
2023-04-16T04:46:48.595Z,95868.47
2023-04-16T04:48:51.381Z,95883.34
2023-04-16T04:50:54.557Z,95867.34
2023-04-16T04:52:57.368Z,95872.41
2023-04-16T04:55:00.644Z,95881.09
2023-04-16T04:57:04.885Z,95871.03
2023-04-16T04:59:07.814Z,95861.03
2023-04-16T05:01:11.228Z,95892.09
2023-04-16T05:03:14.050Z,95878.34
2023-04-16T05:05:16.888Z,95821.44
2023-04-16T05:07:19.626Z,95884.38
2023-04-16T05:09:22.355Z,95896.00
2023-04-16T05:11:25.118Z,95896.59
2023-04-16T05:13:29.194Z,95897.88
2023-04-16T05:15:31.935Z,95904.63
2023-04-16T05:17:34.678Z,95909.03
2023-04-16T05:19:37.432Z,95910.41
2023-04-16T05:21:40.264Z,95918.03
2023-04-16T05:23:42.986Z,95838.63
2023-04-16T05:25:45.815Z,95915.13
2023-04-16T05:27:48.529Z,95921.53
2023-04-16T05:29:52.568Z,95923.09
2023-04-16T05:31:55.272Z,95916.72
2023-04-16T05:33:57.994Z,95917.63
2023-04-16T05:36:00.726Z,95927.00
2023-04-16T05:38:04.368Z,95929.06
2023-04-16T05:40:08.694Z,95933.38
2023-04-16T05:42:11.423Z,95936.94
2023-04-16T05:44:15.243Z,95879.47
2023-04-16T05:46:19.411Z,95938.25
2023-04-16T05:48:22.254Z,95900.59
2023-04-16T05:50:24.972Z,95941.25
2023-04-16T05:52:27.666Z,95949.53
2023-04-16T05:54:30.415Z,95945.81
2023-04-16T05:56:33.172Z,95943.00
2023-04-16T05:58:36.043Z,95909.31
2023-04-16T06:00:38.823Z,95954.88
2023-04-16T06:02:43.075Z,95962.34
2023-04-16T06:04:46.293Z,95947.72
2023-04-16T06:06:49.052Z,95961.84
2023-04-16T06:08:51.788Z,95954.22
2023-04-16T06:10:54.692Z,95870.25
2023-04-16T06:12:57.418Z,95900.06
2023-04-16T06:15:01.019Z,95964.59
2023-04-16T06:17:03.753Z,95959.03
2023-04-16T06:19:07.968Z,95969.13
2023-04-16T06:21:10.829Z,95962.44
2023-04-16T06:23:13.521Z,95961.56
2023-04-16T06:25:18.105Z,95916.97
2023-04-16T06:27:20.999Z,95917.25
2023-04-16T06:29:30.675Z,95962.16
2023-04-16T06:31:40.125Z,95954.81
2023-04-16T06:33:42.844Z,95961.72
2023-04-16T06:35:46.926Z,95965.13
2023-04-16T06:37:49.706Z,95899.50
2023-04-16T06:39:52.430Z,95965.41
2023-04-16T06:41:55.953Z,95966.91
2023-04-16T06:43:58.755Z,95981.28
2023-04-16T06:46:01.603Z,95971.06
2023-04-16T06:48:05.094Z,95961.63
2023-04-16T06:50:08.761Z,95979.81
2023-04-16T06:52:13.131Z,95980.25
2023-04-16T06:54:16.724Z,95981.81
2023-04-16T06:56:19.479Z,95993.97
2023-04-16T06:58:22.975Z,95990.63
2023-04-16T07:00:25.941Z,95992.19
2023-04-16T07:02:28.845Z,95994.63
2023-04-16T07:04:31.675Z,95866.09
2023-04-16T07:06:34.569Z,95992.84
2023-04-16T07:08:38.612Z,95974.09
2023-04-16T07:10:41.378Z,95997.91
2023-04-16T07:12:44.173Z,95995.16
2023-04-16T07:14:47.628Z,95995.38
2023-04-16T07:16:50.443Z,95994.03
2023-04-16T07:18:53.261Z,95998.19
2023-04-16T07:20:56.034Z,95998.63
2023-04-16T07:22:59.398Z,95958.00
2023-04-16T07:25:03.777Z,95997.66
2023-04-16T07:27:06.493Z,96006.56
2023-04-16T07:29:09.491Z,95996.41
2023-04-16T07:31:12.771Z,96003.09
2023-04-16T07:33:15.538Z,95910.63
2023-04-16T07:35:18.521Z,95998.56
2023-04-16T07:37:21.272Z,96002.78
2023-04-16T07:39:24.011Z,96005.44
2023-04-16T07:41:29.440Z,96003.31
2023-04-16T07:43:32.138Z,96012.06
2023-04-16T07:45:34.930Z,96012.56
2023-04-16T07:47:37.680Z,96009.59
2023-04-16T07:49:40.729Z,96002.94
2023-04-16T07:51:43.554Z,95857.38
2023-04-16T07:53:46.458Z,96019.16
2023-04-16T07:55:49.240Z,95985.72
2023-04-16T07:57:53.827Z,96016.16
2023-04-16T07:59:56.557Z,96021.59
2023-04-16T08:01:59.513Z,96019.97
2023-04-16T08:04:02.469Z,96010.72
2023-04-16T08:06:05.390Z,96023.91
2023-04-16T08:08:08.405Z,96027.25
2023-04-16T08:10:11.397Z,96030.44
2023-04-16T08:12:14.150Z,96034.94
2023-04-16T08:14:18.293Z,96039.41
2023-04-16T08:16:21.201Z,96041.03
2023-04-16T08:18:24.058Z,96036.88
2023-04-16T08:20:27.133Z,96040.34
2023-04-16T08:22:29.927Z,96047.75
2023-04-16T08:24:32.703Z,96053.63
2023-04-16T08:26:35.435Z,96049.94
2023-04-16T08:28:38.251Z,96054.16
2023-04-16T08:30:42.464Z,96058.75
2023-04-16T08:32:46.406Z,96058.25
2023-04-16T08:34:50.811Z,96059.81
2023-04-16T08:36:53.590Z,96063.44
2023-04-16T08:38:56.303Z,96070.03
2023-04-16T08:41:03.797Z,96065.13
2023-04-16T08:43:11.722Z,96074.41
2023-04-16T08:45:17.772Z,96066.78
2023-04-16T08:47:24.165Z,96070.84
2023-04-16T08:49:27.862Z,96071.31
2023-04-16T08:51:35.039Z,96074.78
2023-04-16T08:53:49.520Z,96071.16
2023-04-16T08:55:53.788Z,96024.72
2023-04-16T08:58:01.336Z,96029.47
2023-04-16T09:00:05.020Z,95977.88
2023-04-16T09:02:08.338Z,96078.22
2023-04-16T09:04:14.992Z,96015.66
2023-04-16T09:06:18.377Z,96081.03
2023-04-16T09:08:21.411Z,96077.47
2023-04-16T09:10:25.594Z,96088.03
2023-04-16T09:12:28.972Z,96095.03
2023-04-16T09:14:32.009Z,96086.22
2023-04-16T09:16:35.660Z,96095.25
2023-04-16T09:18:38.647Z,96023.16
2023-04-16T09:20:42.718Z,96100.47
2023-04-16T09:22:46.449Z,96100.84
2023-04-16T09:24:49.226Z,96094.34
2023-04-16T09:26:53.565Z,96049.44
2023-04-16T09:28:56.367Z,96090.25
2023-04-16T09:31:09.886Z,96096.38
2023-04-16T09:33:22.351Z,96098.09
2023-04-16T09:35:25.526Z,96098.06
2023-04-16T09:37:30.924Z,96097.97
2023-04-16T09:39:33.749Z,96090.63
2023-04-16T09:41:39.432Z,96098.09
2023-04-16T09:43:42.176Z,96109.25
2023-04-16T09:45:51.843Z,96107.75
2023-04-16T09:48:04.516Z,96096.78
2023-04-16T09:50:08.312Z,96045.59
2023-04-16T09:52:15.378Z,96105.34
2023-04-16T09:54:21.021Z,96091.97
2023-04-16T09:56:26.736Z,96109.72
2023-04-16T09:58:30.023Z,96117.94
2023-04-16T10:00:32.663Z,96106.91
2023-04-16T10:02:38.900Z,96119.88
2023-04-16T10:04:47.832Z,96114.06
2023-04-16T10:07:04.949Z,96105.75
2023-04-16T10:09:09.139Z,96055.41
2023-04-16T10:11:13.738Z,96075.13
2023-04-16T10:13:17.677Z,96122.50
2023-04-16T10:15:20.479Z,96129.16
2023-04-16T10:17:24.042Z,96123.91
2023-04-16T10:19:27.017Z,96131.25
2023-04-16T10:21:33.810Z,96007.50
2023-04-16T10:23:37.214Z,96095.16
2023-04-16T10:25:39.953Z,96123.47
2023-04-16T10:27:44.858Z,96136.53
2023-04-16T10:29:47.935Z,96137.59
2023-04-16T10:31:52.211Z,96133.00
2023-04-16T10:33:55.441Z,96099.94
2023-04-16T10:36:12.149Z,96098.28
2023-04-16T10:38:26.383Z,96133.34
2023-04-16T10:40:29.480Z,96133.50
2023-04-16T10:42:32.577Z,96129.31
2023-04-16T10:44:36.964Z,96120.69
2023-04-16T10:46:41.261Z,96051.06
2023-04-16T10:48:49.595Z,96133.94
2023-04-16T10:50:57.930Z,95978.00
2023-04-16T10:53:25.235Z,96140.69
2023-04-16T10:55:28.068Z,96148.84
2023-04-16T10:57:31.316Z,96095.97
2023-04-16T10:59:37.439Z,96145.28
2023-04-16T11:01:43.346Z,96138.00
2023-04-16T11:03:48.446Z,96147.19
2023-04-16T11:05:51.265Z,96121.59
2023-04-16T11:07:54.049Z,96144.28
2023-04-16T11:09:59.447Z,96106.19
2023-04-16T11:12:04.883Z,96139.03
2023-04-16T11:14:10.351Z,96142.13
2023-04-16T11:16:15.640Z,96148.75
2023-04-16T11:18:20.593Z,96067.97
2023-04-16T11:20:24.738Z,96116.59
2023-04-16T11:22:28.213Z,96139.97
2023-04-16T11:24:31.471Z,96144.97
2023-04-16T11:26:34.247Z,96145.78
2023-04-16T11:28:36.951Z,96145.28
2023-04-16T11:30:41.552Z,96152.19
2023-04-16T11:32:46.592Z,96148.72
2023-04-16T11:34:49.326Z,96064.63
2023-04-16T11:36:53.167Z,96152.22
2023-04-16T11:39:03.516Z,96132.72
2023-04-16T11:41:06.251Z,96157.50
2023-04-16T11:43:15.719Z,96158.00
2023-04-16T11:45:19.357Z,96155.66
2023-04-16T11:47:23.429Z,96162.31
2023-04-16T11:49:31.059Z,96156.47
2023-04-16T11:51:33.875Z,96153.25
2023-04-16T11:53:37.777Z,96153.38
2023-04-16T11:55:45.851Z,96140.88
2023-04-16T11:57:48.770Z,96147.16
2023-04-16T12:00:03.058Z,96158.69
2023-04-16T12:02:37.226Z,96161.44
2023-04-16T12:04:42.399Z,96162.53
2023-04-16T12:07:06.667Z,96154.72
2023-04-16T12:09:25.256Z,96171.50
2023-04-16T12:11:41.104Z,96145.03
2023-04-16T12:13:43.873Z,96166.25
2023-04-16T12:15:48.175Z,96126.22
2023-04-16T12:17:54.424Z,96175.22
2023-04-16T12:19:59.571Z,96176.03
2023-04-16T12:22:02.331Z,96159.28
2023-04-16T12:24:05.623Z,96177.34
2023-04-16T12:26:10.637Z,96084.91
2023-04-16T12:28:13.813Z,96128.09
2023-04-16T12:30:17.551Z,96154.88
2023-04-16T12:32:24.100Z,96175.38
2023-04-16T12:34:36.540Z,96177.41
2023-04-16T12:37:05.830Z,96179.69
2023-04-16T12:39:10.819Z,96031.53
2023-04-16T12:41:13.746Z,96178.69
2023-04-16T12:43:16.853Z,96181.84
2023-04-16T12:45:19.868Z,96167.97
2023-04-16T12:47:22.664Z,96175.44
2023-04-16T12:49:25.794Z,96174.03
2023-04-16T12:51:28.722Z,96133.22
2023-04-16T12:53:32.861Z,96174.72
2023-04-16T12:55:35.620Z,96182.06
2023-04-16T12:57:38.400Z,96181.25
2023-04-16T12:59:41.165Z,96130.75
2023-04-16T13:01:43.966Z,96177.53
2023-04-16T13:03:47.196Z,96181.47
2023-04-16T13:05:50.170Z,96179.97
2023-04-16T13:07:52.990Z,96173.09
2023-04-16T13:09:57.199Z,96104.75
2023-04-16T13:11:59.957Z,96173.09
2023-04-16T13:14:03.011Z,96168.22
2023-04-16T13:16:08.364Z,96037.31
2023-04-16T13:18:11.188Z,96169.16
2023-04-16T13:20:14.134Z,96170.53
2023-04-16T13:22:17.022Z,96163.78
2023-04-16T13:24:20.225Z,96176.59
2023-04-16T13:26:24.299Z,96154.34
2023-04-16T13:28:26.998Z,96162.03
2023-04-16T13:30:30.054Z,96166.47
2023-04-16T13:32:32.846Z,96124.31
2023-04-16T13:34:35.780Z,96158.06
2023-04-16T13:36:38.878Z,96158.78
2023-04-16T13:38:42.222Z,96174.38
2023-04-16T13:40:45.297Z,96174.63
2023-04-16T13:42:49.352Z,96167.75
2023-04-16T13:44:54.157Z,96167.97
2023-04-16T13:46:57.107Z,96176.81
2023-04-16T13:48:59.962Z,96167.16
2023-04-16T13:51:04.177Z,96166.69
2023-04-16T13:53:07.046Z,96007.78
2023-04-16T13:55:10.560Z,96163.75
2023-04-16T13:57:13.798Z,96172.19
2023-04-16T13:59:18.220Z,96142.41
2023-04-16T14:01:21.137Z,96160.19
2023-04-16T14:03:24.464Z,96066.13
2023-04-16T14:05:27.427Z,96160.78
2023-04-16T14:07:30.445Z,96139.84
2023-04-16T14:09:33.275Z,96167.50
2023-04-16T14:11:35.997Z,96161.91
2023-04-16T14:13:38.996Z,96165.41
2023-04-16T14:15:43.420Z,96057.25
2023-04-16T14:17:46.784Z,96164.94
2023-04-16T14:19:49.707Z,96146.41
2023-04-16T14:21:52.484Z,96157.16
2023-04-16T14:23:55.245Z,96156.25
2023-04-16T14:25:58.056Z,96152.69
2023-04-16T14:28:01.160Z,96164.75
2023-04-16T14:30:04.081Z,96152.63
2023-04-16T14:32:08.932Z,96034.41
2023-04-16T14:34:11.839Z,96163.78
2023-04-16T14:36:14.642Z,96157.22
2023-04-16T14:38:17.465Z,96100.16
2023-04-16T14:40:20.465Z,96153.47
2023-04-16T14:42:23.449Z,96152.56
2023-04-16T14:44:26.162Z,96153.00
2023-04-16T14:46:28.944Z,96160.97
2023-04-16T14:48:33.269Z,96154.97
2023-04-16T14:50:37.886Z,96162.13
2023-04-16T14:52:41.624Z,96170.75
2023-04-16T14:54:44.496Z,95967.72
2023-04-16T14:56:47.834Z,96167.09
2023-04-16T14:58:50.689Z,96171.22
2023-04-16T15:00:53.536Z,96169.81
2023-04-16T15:02:56.651Z,96047.97
2023-04-16T15:05:01.045Z,96171.94
2023-04-16T15:07:03.786Z,96175.44
2023-04-16T15:09:07.457Z,96173.81
2023-04-16T15:11:10.237Z,96174.13
2023-04-16T15:13:12.974Z,96171.22
2023-04-16T15:15:15.835Z,96184.75
2023-04-16T15:17:18.700Z,96178.94
2023-04-16T15:19:21.678Z,96172.28
2023-04-16T15:21:26.697Z,96180.22
2023-04-16T15:23:29.440Z,96183.94
2023-04-16T15:25:32.117Z,96186.31
2023-04-16T15:27:34.848Z,96180.03
2023-04-16T15:29:37.586Z,96186.50
2023-04-16T15:31:40.325Z,96155.06
2023-04-16T15:33:43.089Z,96166.59
2023-04-16T15:35:45.858Z,96191.50
2023-04-16T15:37:52.270Z,96183.38
2023-04-16T15:39:55.005Z,96192.44
2023-04-16T15:42:01.261Z,96179.88
2023-04-16T15:44:05.865Z,96188.47
2023-04-16T15:46:08.752Z,96195.28
2023-04-16T15:48:11.594Z,96186.78
2023-04-16T15:50:14.411Z,96184.34
2023-04-16T15:52:17.259Z,96192.13
2023-04-16T15:54:21.508Z,96194.78
2023-04-16T15:56:24.308Z,96182.00
2023-04-16T15:58:27.504Z,96075.34
2023-04-16T16:00:30.507Z,96192.47
2023-04-16T16:02:34.142Z,96194.13
2023-04-16T16:04:37.234Z,96185.88
2023-04-16T16:06:40.096Z,96189.81
2023-04-16T16:08:43.538Z,96147.13
2023-04-16T16:10:47.786Z,96193.88
2023-04-16T16:12:50.522Z,96200.41
2023-04-16T16:14:53.243Z,96202.00
2023-04-16T16:16:55.981Z,96192.22
2023-04-16T16:18:58.778Z,96191.88
2023-04-16T16:21:01.609Z,96192.47
2023-04-16T16:23:04.784Z,96082.22
2023-04-16T16:25:08.459Z,96204.44
2023-04-16T16:27:12.605Z,96198.06
2023-04-16T16:29:15.452Z,96195.13
2023-04-16T16:31:18.236Z,96197.66
2023-04-16T16:33:21.003Z,96198.81
2023-04-16T16:35:23.749Z,96204.44
2023-04-16T16:37:26.617Z,96202.59
2023-04-16T16:39:29.339Z,96189.22
2023-04-16T16:41:32.302Z,96111.47
2023-04-16T16:43:36.633Z,96088.97
2023-04-16T16:45:39.759Z,96201.81
2023-04-16T16:47:42.552Z,96203.91
2023-04-16T16:49:45.320Z,96203.69
2023-04-16T16:51:48.317Z,96204.91
2023-04-16T16:53:51.083Z,96203.59
2023-04-16T16:55:53.963Z,96206.41
2023-04-16T16:57:56.683Z,96209.88
2023-04-16T17:00:00.847Z,96101.56
2023-04-16T17:02:03.824Z,96192.00
2023-04-16T17:04:06.829Z,96194.53
2023-04-16T17:06:09.881Z,96204.06
2023-04-16T17:08:13.784Z,96135.97
2023-04-16T17:10:20.403Z,96205.34
2023-04-16T17:12:23.724Z,96202.06
2023-04-16T17:14:26.502Z,96202.56
2023-04-16T17:16:30.633Z,96117.41
2023-04-16T17:18:33.685Z,96106.47
2023-04-16T17:20:36.429Z,96211.19
2023-04-16T17:22:40.011Z,96190.31
2023-04-16T17:24:42.971Z,96226.03
2023-04-16T17:26:46.152Z,96214.75
2023-04-16T17:28:48.929Z,96216.41
2023-04-16T17:30:53.289Z,96218.25
2023-04-16T17:32:57.383Z,96147.72
2023-04-16T17:35:01.701Z,96145.75
2023-04-16T17:37:04.419Z,96189.81
2023-04-16T17:39:07.097Z,96217.13
2023-04-16T17:41:09.798Z,96009.97
2023-04-16T17:43:12.567Z,96206.50
2023-04-16T17:45:15.595Z,96175.59
2023-04-16T17:47:18.365Z,96225.03
2023-04-16T17:49:22.431Z,95886.78
2023-04-16T17:51:25.870Z,96223.28
2023-04-16T17:53:28.656Z,96221.00
2023-04-16T17:55:31.543Z,96218.56
2023-04-16T17:57:34.600Z,96230.25
2023-04-16T17:59:37.348Z,96188.97
2023-04-16T18:01:40.890Z,96188.53
2023-04-16T18:03:44.385Z,96238.50
2023-04-16T18:05:48.638Z,96072.25
2023-04-16T18:07:51.578Z,96233.81
2023-04-16T18:09:54.386Z,96232.69
2023-04-16T18:11:57.534Z,96217.66
2023-04-16T18:14:00.302Z,96172.94
2023-04-16T18:16:03.200Z,96117.91
2023-04-16T18:18:06.357Z,96240.31
2023-04-16T18:20:11.635Z,96080.81
2023-04-16T18:22:15.809Z,95963.75
2023-04-16T18:24:18.570Z,96024.72
2023-04-16T18:26:22.872Z,96245.47
2023-04-16T18:28:25.964Z,96244.94
2023-04-16T18:30:28.771Z,96241.97
2023-04-16T18:32:31.688Z,96232.31
2023-04-16T18:34:34.693Z,96144.00
2023-04-16T18:36:37.499Z,96253.72
2023-04-16T18:38:52.993Z,96150.53
2023-04-16T18:41:03.017Z,96245.50
2023-04-16T18:43:05.897Z,96254.75
2023-04-16T18:45:12.988Z,96266.53
2023-04-16T18:47:16.848Z,96247.59
2023-04-16T18:49:19.614Z,96032.28
2023-04-16T18:51:22.476Z,96248.13
2023-04-16T18:53:25.471Z,96258.03
2023-04-16T18:55:30.298Z,96254.63
2023-04-16T18:57:33.092Z,96214.53
2023-04-16T18:59:35.877Z,96235.63
2023-04-16T19:01:38.616Z,96186.09
2023-04-16T19:03:41.439Z,96264.03
2023-04-16T19:05:44.571Z,96264.19
2023-04-16T19:07:47.464Z,96164.94
2023-04-16T19:09:50.244Z,96260.41
2023-04-16T19:11:54.413Z,96274.06
2023-04-16T19:13:57.503Z,96162.28
2023-04-16T19:16:01.454Z,96244.00
2023-04-16T19:18:04.476Z,96270.97
2023-04-16T19:20:11.268Z,96282.41
2023-04-16T19:22:14.133Z,96282.53
2023-04-16T19:24:16.922Z,96283.00
2023-04-16T19:26:19.832Z,96221.66
2023-04-16T19:28:23.939Z,96284.47
2023-04-16T19:30:26.746Z,96285.22
2023-04-16T19:32:29.658Z,96289.59
2023-04-16T19:34:32.457Z,96209.63
2023-04-16T19:36:35.442Z,96282.53
2023-04-16T19:38:38.304Z,95981.81
2023-04-16T19:40:41.280Z,96173.75
2023-04-16T19:42:45.258Z,96177.56
2023-04-16T19:44:49.408Z,96286.13
2023-04-16T19:46:52.181Z,96289.53
2023-04-16T19:48:54.935Z,96278.91
2023-04-16T19:50:57.737Z,96162.31
2023-04-16T19:53:00.500Z,96286.47
2023-04-16T19:55:03.387Z,96108.66
2023-04-16T19:57:06.206Z,96176.22
2023-04-16T19:59:09.181Z,96287.38
2023-04-16T20:01:13.550Z,96260.94
2023-04-16T20:03:16.384Z,96285.38
2023-04-16T20:05:19.330Z,96279.94
2023-04-16T20:07:22.495Z,96278.47
2023-04-16T20:09:25.685Z,96288.94
2023-04-16T20:11:28.456Z,96289.97
2023-04-16T20:13:31.287Z,96210.50
2023-04-16T20:15:34.039Z,96213.09
2023-04-16T20:17:38.242Z,96256.53
2023-04-16T20:19:41.060Z,96275.28
2023-04-16T20:21:45.442Z,96285.06
2023-04-16T20:23:48.265Z,96280.91
2023-04-16T20:25:52.147Z,96277.28
2023-04-16T20:27:54.977Z,96281.22
2023-04-16T20:29:57.775Z,96276.16
2023-04-16T20:32:00.575Z,96269.84
2023-04-16T20:34:04.820Z,96277.50
2023-04-16T20:36:08.374Z,96276.09
2023-04-16T20:38:11.279Z,96280.53
2023-04-16T20:40:15.022Z,96280.31
2023-04-16T20:42:17.974Z,96242.75
2023-04-16T20:44:26.137Z,96272.38
2023-04-16T20:46:30.250Z,96270.97
2023-04-16T20:48:33.229Z,96271.69
2023-04-16T20:50:37.376Z,96180.97
2023-04-16T20:52:40.253Z,96272.66
2023-04-16T20:54:43.067Z,96275.13
2023-04-16T20:56:45.851Z,96270.66
2023-04-16T20:58:48.610Z,96267.84
2023-04-16T21:00:51.947Z,96268.34
2023-04-16T21:02:54.811Z,96160.19
2023-04-16T21:04:57.700Z,96228.03
2023-04-16T21:07:03.169Z,96192.69
2023-04-16T21:09:06.504Z,96261.06
2023-04-16T21:11:09.496Z,96262.63
2023-04-16T21:13:12.303Z,96256.69
2023-04-16T21:15:15.156Z,96246.28
2023-04-16T21:17:17.890Z,96217.34
2023-04-16T21:19:20.581Z,96259.34
2023-04-16T21:21:23.450Z,96197.59
2023-04-16T21:23:27.646Z,96265.72
2023-04-16T21:25:31.025Z,96248.59
2023-04-16T21:27:33.849Z,96269.09
2023-04-16T21:29:36.567Z,96260.59
2023-04-16T21:31:39.385Z,96273.63
2023-04-16T21:33:42.140Z,96261.13
2023-04-16T21:35:44.935Z,96267.53
2023-04-16T21:37:47.779Z,96258.19
2023-04-16T21:39:51.835Z,96265.50
2023-04-16T21:41:54.560Z,96269.63
2023-04-16T21:43:57.250Z,96266.94
2023-04-16T21:46:00.518Z,96264.53
2023-04-16T21:48:03.352Z,96270.34
2023-04-16T21:50:06.765Z,95860.44
2023-04-16T21:52:14.037Z,96263.81
2023-04-16T21:54:18.630Z,96222.84
2023-04-16T21:56:22.803Z,96278.25
2023-04-16T21:58:26.451Z,96262.56
2023-04-16T22:00:29.173Z,96170.28
2023-04-16T22:02:31.915Z,96227.00
2023-04-16T22:04:38.443Z,96270.66
2023-04-16T22:06:41.281Z,96257.16
2023-04-16T22:08:43.957Z,96202.66
2023-04-16T22:10:46.652Z,95986.09
2023-04-16T22:12:54.769Z,96265.31
2023-04-16T22:15:02.433Z,96259.66
2023-04-16T22:17:06.356Z,96198.19
2023-04-16T22:19:09.582Z,96267.31
2023-04-16T22:21:12.450Z,96263.53
2023-04-16T22:23:15.165Z,96235.97
2023-04-16T22:25:17.881Z,96262.66
2023-04-16T22:27:20.571Z,96168.34
2023-04-16T22:29:24.603Z,96258.19
2023-04-16T22:31:27.368Z,96263.44
2023-04-16T22:33:30.376Z,96256.19
2023-04-16T22:35:33.085Z,96262.19
2023-04-16T22:37:35.773Z,96261.16
2023-04-16T22:39:38.497Z,96261.59
2023-04-16T22:41:41.411Z,96245.78
2023-04-16T22:43:44.122Z,96253.66
2023-04-16T22:45:48.640Z,96254.25
2023-04-16T22:47:51.415Z,96248.91
2023-04-16T22:49:54.345Z,96249.19
2023-04-16T22:51:57.044Z,96263.31
2023-04-16T22:53:59.776Z,96248.22
2023-04-16T22:56:02.515Z,96220.59
2023-04-16T22:58:05.372Z,96253.50
2023-04-16T23:00:15.522Z,96203.25
2023-04-16T23:02:20.076Z,96242.22
2023-04-16T23:04:22.874Z,96255.19
2023-04-16T23:06:26.713Z,96053.94
2023-04-16T23:08:29.412Z,96253.44
2023-04-16T23:10:32.246Z,96250.91
2023-04-16T23:12:37.119Z,96250.75
2023-04-16T23:14:39.821Z,96261.75
2023-04-16T23:16:42.513Z,96247.63
2023-04-16T23:18:46.638Z,96253.28
2023-04-16T23:20:51.829Z,96254.69
2023-04-16T23:22:54.558Z,96234.88
2023-04-16T23:24:57.407Z,96228.84
2023-04-16T23:27:01.074Z,96253.66
2023-04-16T23:29:03.873Z,95868.31
2023-04-16T23:31:07.386Z,96046.97
2023-04-16T23:33:10.474Z,96207.91
2023-04-16T23:35:20.272Z,96241.41
2023-04-16T23:37:23.067Z,96234.88
2023-04-16T23:39:26.148Z,96249.34
2023-04-16T23:41:28.898Z,96232.50
2023-04-16T23:43:31.727Z,96137.03
2023-04-16T23:45:34.492Z,96246.53
2023-04-16T23:47:37.325Z,96239.31
2023-04-16T23:49:40.129Z,96242.81
2023-04-16T23:51:44.220Z,96243.56
2023-04-16T23:53:46.894Z,96243.75
2023-04-16T23:55:49.673Z,96237.84
2023-04-16T23:57:52.400Z,96243.94
2023-04-16T23:59:55.236Z,96235.31
